createdAt,value
2022-09-28T00:01:15.533Z,0.20
2022-09-28T00:03:42.422Z,0.10
2022-09-28T00:06:12.474Z,0.13
2022-09-28T00:08:39.348Z,0.17
2022-09-28T00:11:07.449Z,0.10
2022-09-28T00:13:35.208Z,0.20
2022-09-28T00:16:11.716Z,0.20
2022-09-28T00:18:38.306Z,0.35
2022-09-28T00:21:08.751Z,0.17
2022-09-28T00:23:56.263Z,0.13
2022-09-28T00:26:23.189Z,0.15
2022-09-28T00:28:54.695Z,0.10
2022-09-28T00:31:22.217Z,0.20
2022-09-28T00:33:58.092Z,0.10
2022-09-28T00:36:26.992Z,0.10
2022-09-28T00:38:57.708Z,0.20
2022-09-28T00:41:26.028Z,0.10
2022-09-28T00:43:54.100Z,0.20
2022-09-28T00:46:34.930Z,0.20
2022-09-28T00:49:08.793Z,0.20
2022-09-28T00:51:37.807Z,0.17
2022-09-28T00:54:07.680Z,0.10
2022-09-28T00:56:40.282Z,0.20
2022-09-28T00:59:08.750Z,0.40
2022-09-28T01:01:36.013Z,0.10
2022-09-28T01:04:04.836Z,0.30
2022-09-28T01:06:35.981Z,0.20
2022-09-28T01:09:07.426Z,0.20
2022-09-28T01:11:38.393Z,0.30
2022-09-28T01:14:09.271Z,0.20
2022-09-28T01:16:54.648Z,0.15
2022-09-28T01:19:46.609Z,0.10
2022-09-28T01:22:23.749Z,0.20
2022-09-28T01:24:59.680Z,0.25
2022-09-28T01:27:39.456Z,0.15
2022-09-28T01:30:07.858Z,0.20
2022-09-28T01:33:09.572Z,0.17
2022-09-28T01:35:51.495Z,0.20
2022-09-28T01:38:37.000Z,0.20
2022-09-28T01:41:05.302Z,0.20
2022-09-28T01:43:40.834Z,0.20
2022-09-28T01:46:19.312Z,0.30
2022-09-28T01:48:50.341Z,0.47
2022-09-28T01:51:30.579Z,0.10
2022-09-28T01:54:05.755Z,0.15
2022-09-28T01:56:52.065Z,0.20
2022-09-28T01:59:24.773Z,0.22
2022-09-28T02:01:57.445Z,0.20
2022-09-28T02:04:32.560Z,0.52
2022-09-28T02:07:07.603Z,0.17
2022-09-28T02:09:40.407Z,0.20
2022-09-28T02:12:15.678Z,0.20
2022-09-28T02:14:45.538Z,0.10
2022-09-28T02:17:12.796Z,0.20
2022-09-28T02:19:41.248Z,0.15
2022-09-28T02:22:23.844Z,0.10
2022-09-28T02:25:11.356Z,0.30
2022-09-28T02:27:50.655Z,0.13
2022-09-28T02:30:18.234Z,0.20
2022-09-28T02:32:47.942Z,0.15
2022-09-28T02:35:17.453Z,0.15
2022-09-28T02:37:45.828Z,0.15
2022-09-28T02:40:34.183Z,0.30
2022-09-28T02:43:24.603Z,0.20
2022-09-28T02:46:13.033Z,0.20
2022-09-28T02:49:17.471Z,0.20
2022-09-28T02:52:02.357Z,0.20
2022-09-28T02:55:09.583Z,0.10
2022-09-28T02:57:57.453Z,0.10
2022-09-28T03:00:24.807Z,0.20
2022-09-28T03:02:57.557Z,0.10
2022-09-28T03:05:36.194Z,0.20
2022-09-28T03:08:21.051Z,0.20
2022-09-28T03:11:03.071Z,0.20
2022-09-28T03:13:31.750Z,0.20
2022-09-28T03:16:14.291Z,0.28
2022-09-28T03:18:44.073Z,0.10
2022-09-28T03:21:14.789Z,0.20
2022-09-28T03:23:42.751Z,0.10
2022-09-28T03:26:13.802Z,0.20
2022-09-28T03:28:40.763Z,0.10
2022-09-28T03:31:11.318Z,0.20
2022-09-28T03:33:37.940Z,0.20
2022-09-28T03:36:04.664Z,0.10
2022-09-28T03:38:31.428Z,0.10
2022-09-28T03:41:00.454Z,0.10
2022-09-28T03:43:32.276Z,0.20
2022-09-28T03:46:02.446Z,0.20
2022-09-28T03:48:33.833Z,0.20
2022-09-28T03:51:03.858Z,0.30
2022-09-28T03:53:31.101Z,0.10
2022-09-28T03:56:05.594Z,0.10
2022-09-28T03:58:32.985Z,0.15
2022-09-28T04:01:17.649Z,0.10
2022-09-28T04:03:46.923Z,0.10
2022-09-28T04:06:13.937Z,0.10
2022-09-28T04:08:40.573Z,0.30
2022-09-28T04:11:08.272Z,0.10
2022-09-28T04:13:34.989Z,0.20
2022-09-28T04:16:02.019Z,0.10
2022-09-28T04:18:33.028Z,0.20
2022-09-28T04:21:11.965Z,0.10
2022-09-28T04:23:48.788Z,0.20
2022-09-28T04:26:24.064Z,0.10
2022-09-28T04:29:09.748Z,0.30
2022-09-28T04:31:45.764Z,0.22
2022-09-28T04:34:17.217Z,0.13
2022-09-28T04:36:45.203Z,0.20
2022-09-28T04:39:14.201Z,0.13
2022-09-28T04:41:43.293Z,0.10
2022-09-28T04:44:10.093Z,0.10
2022-09-28T04:46:36.717Z,0.10
2022-09-28T04:49:24.788Z,0.10
2022-09-28T04:52:18.209Z,0.20
2022-09-28T04:54:48.379Z,0.10
2022-09-28T04:57:16.096Z,0.10
2022-09-28T04:59:42.672Z,0.20
2022-09-28T05:02:09.349Z,0.10
2022-09-28T05:05:05.646Z,0.17
2022-09-28T05:07:47.721Z,0.10
2022-09-28T05:10:14.472Z,0.35
2022-09-28T05:12:41.095Z,0.20
2022-09-28T05:15:07.997Z,0.20
2022-09-28T05:17:34.639Z,0.13
2022-09-28T05:20:20.424Z,0.20
2022-09-28T05:22:46.988Z,0.10
2022-09-28T05:25:13.608Z,0.20
2022-09-28T05:28:03.304Z,0.20
2022-09-28T05:30:49.863Z,0.20
2022-09-28T05:33:34.850Z,0.10
2022-09-28T05:36:12.667Z,0.10
2022-09-28T05:38:39.328Z,0.20
2022-09-28T05:41:06.972Z,0.17
2022-09-28T05:43:33.833Z,0.20
2022-09-28T05:46:03.281Z,0.20
2022-09-28T05:48:30.459Z,0.17
2022-09-28T05:50:58.761Z,0.20
2022-09-28T05:53:26.493Z,0.30
2022-09-28T05:55:53.144Z,0.20
2022-09-28T05:58:19.744Z,0.10
2022-09-28T06:00:46.390Z,0.20
2022-09-28T06:03:14.358Z,0.40
2022-09-28T06:05:41.143Z,0.30
2022-09-28T06:08:12.513Z,0.35
2022-09-28T06:10:43.646Z,0.28
2022-09-28T06:13:11.939Z,0.20
2022-09-28T06:15:42.503Z,0.30
2022-09-28T06:18:14.784Z,0.30
2022-09-28T06:20:54.524Z,0.20
2022-09-28T06:23:30.656Z,0.20
2022-09-28T06:25:59.228Z,0.32
2022-09-28T06:28:26.907Z,0.20
2022-09-28T06:30:54.075Z,0.20
2022-09-28T06:33:21.891Z,0.30
2022-09-28T06:35:48.465Z,0.20
2022-09-28T06:38:15.125Z,0.20
2022-09-28T06:40:41.792Z,0.20
2022-09-28T06:43:14.977Z,0.25
2022-09-28T06:46:17.282Z,0.28
2022-09-28T06:48:50.102Z,0.22
2022-09-28T06:51:30.936Z,0.23
2022-09-28T06:54:02.443Z,0.10
2022-09-28T06:56:47.519Z,0.20
2022-09-28T06:59:14.247Z,0.20
2022-09-28T07:01:40.948Z,0.10
2022-09-28T07:04:31.404Z,0.20
2022-09-28T07:07:16.344Z,0.10
2022-09-28T07:10:01.574Z,0.10
2022-09-28T07:12:48.858Z,0.20
2022-09-28T07:15:33.644Z,0.20
2022-09-28T07:18:03.753Z,0.10
2022-09-28T07:20:40.277Z,0.10
2022-09-28T07:23:18.608Z,0.10
2022-09-28T07:26:08.360Z,0.30
2022-09-28T07:29:00.180Z,0.30
2022-09-28T07:31:54.923Z,0.10
2022-09-28T07:37:58.120Z,0.20
2022-09-28T07:40:47.457Z,0.20
2022-09-28T07:43:20.361Z,0.17
2022-09-28T07:45:49.841Z,0.20
2022-09-28T07:48:17.519Z,0.15
2022-09-28T07:50:55.091Z,0.20
2022-09-28T07:53:34.411Z,0.30
2022-09-28T07:56:17.206Z,0.30
2022-09-28T07:59:22.103Z,0.22
2022-09-28T08:02:13.450Z,0.20
2022-09-28T08:04:40.944Z,0.20
2022-09-28T08:07:11.826Z,0.20
2022-09-28T08:09:39.610Z,0.20
2022-09-28T08:12:19.644Z,0.28
2022-09-28T08:14:57.438Z,0.30
2022-09-28T08:17:47.232Z,0.13
2022-09-28T08:23:20.328Z,0.20
2022-09-28T08:25:51.367Z,0.20
2022-09-28T08:28:18.877Z,0.22
2022-09-28T08:30:48.366Z,0.20
2022-09-28T08:33:34.480Z,0.50
2022-09-28T08:36:20.607Z,0.30
2022-09-28T08:39:10.083Z,0.25
2022-09-28T08:42:05.082Z,0.30
2022-09-28T08:44:58.512Z,0.35
2022-09-28T08:48:38.165Z,0.20
2022-09-28T08:51:19.107Z,0.47
2022-09-28T08:54:08.090Z,0.22
2022-09-28T08:56:53.037Z,0.30
2022-09-28T08:59:26.696Z,0.40
2022-09-28T09:02:03.562Z,0.30
2022-09-28T09:04:33.751Z,0.30
2022-09-28T09:07:35.631Z,0.20
2022-09-28T09:10:22.323Z,0.10
2022-09-28T09:13:03.132Z,0.10
2022-09-28T09:15:55.166Z,0.20
2022-09-28T09:19:10.772Z,0.15
2022-09-28T09:21:56.003Z,0.10
2022-09-28T09:24:38.263Z,0.20
2022-09-28T09:30:11.436Z,0.28
2022-09-28T09:32:47.856Z,0.10
2022-09-28T09:35:51.951Z,0.15
2022-09-28T09:41:46.582Z,0.13
2022-09-28T09:44:35.006Z,0.20
2022-09-28T09:47:24.438Z,0.20
2022-09-28T09:49:58.375Z,0.20
2022-09-28T09:55:29.687Z,0.20
2022-09-28T09:58:29.055Z,0.25
2022-09-28T10:01:13.548Z,0.20
2022-09-28T10:04:21.019Z,0.20
2022-09-28T10:06:51.811Z,0.30
2022-09-28T10:09:27.949Z,0.10
2022-09-28T10:12:01.583Z,0.10
2022-09-28T10:14:47.932Z,0.20
2022-09-28T10:20:39.897Z,0.35
2022-09-28T10:23:25.707Z,0.20
2022-09-28T10:25:56.693Z,0.10
2022-09-28T10:28:34.122Z,0.30
2022-09-28T10:31:37.173Z,0.15
2022-09-28T10:34:17.014Z,0.20
2022-09-28T10:37:03.339Z,0.20
2022-09-28T10:39:53.329Z,0.10
2022-09-28T10:42:28.222Z,0.30
2022-09-28T10:45:13.791Z,0.20
2022-09-28T10:47:44.656Z,0.10
2022-09-28T10:50:27.811Z,0.10
2022-09-28T10:53:22.913Z,0.20
2022-09-28T10:56:20.160Z,0.20
2022-09-28T10:58:48.893Z,0.10
2022-09-28T11:01:34.617Z,0.15
2022-09-28T11:04:07.564Z,0.10
2022-09-28T11:06:41.793Z,0.10
2022-09-28T11:09:22.653Z,0.10
2022-09-28T11:11:49.833Z,0.10
2022-09-28T11:14:23.316Z,0.10
2022-09-28T11:17:14.688Z,0.20
2022-09-28T11:19:42.201Z,0.20
2022-09-28T11:22:52.122Z,0.20
2022-09-28T11:25:25.998Z,0.25
2022-09-28T11:27:52.723Z,0.30
2022-09-28T11:30:44.347Z,0.13
2022-09-28T11:33:30.658Z,0.13
2022-09-28T11:36:38.694Z,0.13
2022-09-28T11:39:27.728Z,0.20
2022-09-28T11:42:40.692Z,0.20
2022-09-28T11:45:34.266Z,0.30
2022-09-28T11:48:04.915Z,0.25
2022-09-28T11:50:39.897Z,0.20
2022-09-28T11:53:18.660Z,0.50
2022-09-28T11:56:17.324Z,0.40
2022-09-28T11:58:48.962Z,0.40
2022-09-28T12:01:30.077Z,0.55
2022-09-28T12:04:31.990Z,0.30
2022-09-28T12:07:03.472Z,0.50
2022-09-28T12:09:59.977Z,0.30
2022-09-28T12:13:01.175Z,0.28
2022-09-28T12:16:23.007Z,0.70
2022-09-28T12:21:30.321Z,0.60
2022-09-28T12:24:03.671Z,0.80
2022-09-28T12:26:43.949Z,0.30
2022-09-28T12:29:18.566Z,0.45
2022-09-28T12:32:23.964Z,0.40
2022-09-28T12:34:50.839Z,0.22
2022-09-28T12:37:40.096Z,0.22
2022-09-28T12:40:18.399Z,0.30
2022-09-28T12:43:12.543Z,0.40
2022-09-28T12:46:14.178Z,0.35
2022-09-28T12:49:43.675Z,0.30
2022-09-28T12:51:52.811Z,0.22
2022-09-28T12:54:55.036Z,0.38
2022-09-28T12:57:39.673Z,0.40
2022-09-28T13:00:15.890Z,0.45
2022-09-28T13:02:42.411Z,0.30
2022-09-28T13:05:50.531Z,0.30
2022-09-28T13:08:46.286Z,0.28
2022-09-28T13:11:31.934Z,0.30
2022-09-28T13:14:30.806Z,0.28
2022-09-28T13:17:26.364Z,0.20
2022-09-28T13:19:52.845Z,0.20
2022-09-28T13:22:44.183Z,0.20
2022-09-28T13:25:17.914Z,0.20
2022-09-28T13:27:57.417Z,0.30
2022-09-28T13:30:28.280Z,0.20
2022-09-28T13:33:01.492Z,0.47
2022-09-28T13:35:28.888Z,0.30
2022-09-28T13:38:17.413Z,0.22
2022-09-28T13:41:06.092Z,0.30
2022-09-28T13:43:54.782Z,0.50
2022-09-28T13:46:44.555Z,0.30
2022-09-28T13:49:32.739Z,0.38
2022-09-28T13:52:05.104Z,0.38
2022-09-28T13:54:42.001Z,0.30
2022-09-28T13:57:20.368Z,0.40
2022-09-28T14:00:02.876Z,0.30
2022-09-28T14:02:46.739Z,0.32
2022-09-28T14:05:34.259Z,0.30
2022-09-28T14:08:10.764Z,0.40
2022-09-28T14:10:51.649Z,0.20
2022-09-28T14:13:56.992Z,0.30
2022-09-28T14:16:31.223Z,0.40
2022-09-28T14:19:02.363Z,0.22
2022-09-28T14:22:06.690Z,0.30
2022-09-28T14:24:38.997Z,0.35
2022-09-28T14:27:17.478Z,0.30
2022-09-28T14:29:44.465Z,0.20
2022-09-28T14:32:11.016Z,0.40
2022-09-28T14:34:47.629Z,0.30
2022-09-28T14:37:55.119Z,0.40
2022-09-28T14:40:49.630Z,0.40
2022-09-28T14:43:26.141Z,0.40
2022-09-28T14:46:07.820Z,0.30
2022-09-28T14:51:31.030Z,0.40
2022-09-28T14:54:12.724Z,0.60
2022-09-28T14:57:08.733Z,0.50
2022-09-28T14:59:43.533Z,0.20
2022-09-28T15:02:36.205Z,0.43
2022-09-28T15:05:18.340Z,0.50
2022-09-28T15:07:52.383Z,0.80
2022-09-28T15:10:27.307Z,0.63
2022-09-28T15:12:57.110Z,0.50
2022-09-28T15:15:31.696Z,0.50
2022-09-28T15:18:18.596Z,0.43
2022-09-28T15:20:49.926Z,0.77
2022-09-28T15:23:36.362Z,0.40
2022-09-28T15:26:07.067Z,0.68
2022-09-28T15:28:35.440Z,0.50
2022-09-28T15:31:04.695Z,0.70
2022-09-28T15:33:52.929Z,0.65
2022-09-28T15:36:28.789Z,1.13
2022-09-28T15:39:06.844Z,1.30
2022-09-28T15:41:34.096Z,1.23
2022-09-28T15:44:12.603Z,0.80
2022-09-28T15:46:47.786Z,0.50
2022-09-28T15:49:26.256Z,0.60
2022-09-28T15:51:56.066Z,0.60
2022-09-28T15:54:42.751Z,0.60
2022-09-28T15:57:30.412Z,0.50
2022-09-28T15:59:57.087Z,0.40
2022-09-28T16:02:27.025Z,0.40
2022-09-28T16:04:59.052Z,0.47
2022-09-28T16:07:30.104Z,0.43
2022-09-28T16:10:00.991Z,0.30
2022-09-28T16:12:36.784Z,0.50
2022-09-28T16:15:26.970Z,0.50
2022-09-28T16:18:04.240Z,0.25
2022-09-28T16:20:32.386Z,0.30
2022-09-28T16:23:06.020Z,0.38
2022-09-28T16:25:37.112Z,0.35
2022-09-28T16:28:04.903Z,0.38
2022-09-28T16:30:33.517Z,0.40
2022-09-28T16:33:06.626Z,0.45
2022-09-28T16:35:50.903Z,0.35
2022-09-28T16:38:19.171Z,0.20
2022-09-28T16:40:50.621Z,0.45
2022-09-28T16:43:20.297Z,0.30
2022-09-28T16:45:46.954Z,0.77
2022-09-28T16:48:16.111Z,0.43
2022-09-28T16:50:42.656Z,0.60
2022-09-28T16:53:33.327Z,0.50
2022-09-28T16:56:00.774Z,0.30
2022-09-28T16:58:28.784Z,0.30
2022-09-28T17:00:55.515Z,0.30
2022-09-28T17:03:23.504Z,0.20
2022-09-28T17:05:51.332Z,0.30
2022-09-28T17:08:21.605Z,0.50
2022-09-28T17:13:45.763Z,0.88
2022-09-28T17:16:18.431Z,1.00
2022-09-28T17:18:45.922Z,0.77
2022-09-28T17:21:21.576Z,0.88
2022-09-28T17:23:49.843Z,1.00
2022-09-28T17:26:19.578Z,0.63
2022-09-28T17:28:46.445Z,0.85
2022-09-28T17:31:16.057Z,0.70
2022-09-28T17:33:43.012Z,1.70
2022-09-28T17:36:13.963Z,1.15
2022-09-28T17:38:42.510Z,0.75
2022-09-28T17:41:20.935Z,0.98
2022-09-28T17:43:48.048Z,0.75
2022-09-28T17:46:22.638Z,0.55
2022-09-28T17:48:49.741Z,0.50
2022-09-28T17:51:16.376Z,0.43
2022-09-28T17:53:43.009Z,0.70
2022-09-28T17:56:09.875Z,0.50
2022-09-28T17:58:36.673Z,0.30
2022-09-28T18:01:03.228Z,1.20
2022-09-28T18:03:29.801Z,1.40
2022-09-28T18:06:04.379Z,0.70
2022-09-28T18:08:31.251Z,0.40
2022-09-28T18:10:57.871Z,0.40
2022-09-28T18:13:25.077Z,0.40
2022-09-28T18:15:52.913Z,0.68
2022-09-28T18:18:20.057Z,0.50
2022-09-28T18:20:46.617Z,0.38
2022-09-28T18:23:13.482Z,0.40
2022-09-28T18:25:44.710Z,0.70
2022-09-28T18:28:14.577Z,3.40
2022-09-28T18:30:43.484Z,4.28
2022-09-28T18:33:11.169Z,2.60
2022-09-28T18:35:38.243Z,1.70
2022-09-28T18:38:05.826Z,0.98
2022-09-28T18:40:34.049Z,0.50
2022-09-28T18:43:00.721Z,0.40
2022-09-28T18:45:27.308Z,0.30
2022-09-28T18:47:53.834Z,0.47
2022-09-28T18:50:20.372Z,0.50
2022-09-28T18:52:47.374Z,0.40
2022-09-28T18:55:14.073Z,0.52
2022-09-28T18:57:42.272Z,0.50
2022-09-28T19:00:11.884Z,0.40
2022-09-28T19:02:38.762Z,0.30
2022-09-28T19:05:06.226Z,0.35
2022-09-28T19:07:33.745Z,0.50
2022-09-28T19:10:00.322Z,0.50
2022-09-28T19:12:26.947Z,0.57
2022-09-28T19:14:53.599Z,0.60
2022-09-28T19:17:20.193Z,0.50
2022-09-28T19:19:46.769Z,0.40
2022-09-28T19:22:13.397Z,0.38
2022-09-28T19:24:42.240Z,0.80
2022-09-28T19:27:08.781Z,0.65
2022-09-28T19:29:35.325Z,0.60
2022-09-28T19:32:02.214Z,0.73
2022-09-28T19:34:30.152Z,0.40
2022-09-28T19:36:57.190Z,0.50
2022-09-28T19:39:23.788Z,0.60
2022-09-28T19:41:51.332Z,0.50
2022-09-28T19:44:25.230Z,0.57
2022-09-28T19:46:55.250Z,0.68
2022-09-28T19:49:23.661Z,0.70
2022-09-28T19:52:12.283Z,0.70
2022-09-28T19:54:39.718Z,0.50
2022-09-28T19:57:08.365Z,0.50
2022-09-28T19:59:36.892Z,0.60
2022-09-28T20:02:05.246Z,0.30
2022-09-28T20:04:31.820Z,0.32
2022-09-28T20:06:58.388Z,0.30
2022-09-28T20:09:25.010Z,0.30
2022-09-28T20:11:51.918Z,0.30
2022-09-28T20:14:18.932Z,0.20
2022-09-28T20:16:46.303Z,0.20
2022-09-28T20:19:13.016Z,0.50
2022-09-28T20:21:39.547Z,0.32
2022-09-28T20:24:06.216Z,0.45
2022-09-28T20:26:37.628Z,0.60
2022-09-28T20:29:06.669Z,0.80
2022-09-28T20:31:38.007Z,0.40
2022-09-28T20:34:06.427Z,0.40
2022-09-28T20:36:33.588Z,0.30
2022-09-28T20:39:03.990Z,0.32
2022-09-28T20:41:36.493Z,0.50
2022-09-28T20:44:06.194Z,0.50
2022-09-28T20:46:34.634Z,0.40
2022-09-28T20:49:01.598Z,0.63
2022-09-28T20:51:28.207Z,0.70
2022-09-28T20:53:57.189Z,0.50
2022-09-28T20:56:23.763Z,0.47
2022-09-28T20:58:51.329Z,0.40
2022-09-28T21:01:20.743Z,0.32
2022-09-28T21:03:55.861Z,0.60
2022-09-28T21:06:25.212Z,0.63
2022-09-28T21:08:52.612Z,0.50
2022-09-28T21:11:24.200Z,0.50
2022-09-28T21:13:55.765Z,0.30
2022-09-28T21:18:48.788Z,0.40
2022-09-28T21:21:17.770Z,0.45
2022-09-28T21:23:44.902Z,0.50
2022-09-28T21:26:12.775Z,0.50
2022-09-28T21:28:39.808Z,0.50
2022-09-28T21:31:09.531Z,0.38
2022-09-28T21:33:36.558Z,0.50
2022-09-28T21:36:05.208Z,0.40
2022-09-28T21:38:32.378Z,0.50
2022-09-28T21:41:00.156Z,0.68
2022-09-28T21:43:28.113Z,0.60
2022-09-28T21:45:55.835Z,0.43
2022-09-28T21:48:26.019Z,0.68
2022-09-28T21:51:00.801Z,0.70
2022-09-28T21:53:30.153Z,1.08
2022-09-28T21:55:58.041Z,0.65
2022-09-28T21:58:27.628Z,0.90
2022-09-28T22:01:01.319Z,0.63
2022-09-28T22:03:29.057Z,0.50
2022-09-28T22:05:55.597Z,0.43
2022-09-28T22:08:22.457Z,0.47
2022-09-28T22:11:07.803Z,0.68
2022-09-28T22:13:46.609Z,0.30
2022-09-28T22:16:15.474Z,0.50
2022-09-28T22:18:42.415Z,0.50
2022-09-28T22:21:16.723Z,0.40
2022-09-28T22:23:43.465Z,0.43
2022-09-28T22:26:20.046Z,0.40
2022-09-28T22:28:49.430Z,0.80
2022-09-28T22:31:17.925Z,0.57
2022-09-28T22:33:44.599Z,0.40
2022-09-28T22:36:11.433Z,0.40
2022-09-28T22:38:39.666Z,0.40
2022-09-28T22:41:06.322Z,0.63
2022-09-28T22:43:33.150Z,0.40
2022-09-28T22:46:11.427Z,0.70
2022-09-28T22:48:38.478Z,0.75
2022-09-28T22:51:06.756Z,0.52
2022-09-28T22:53:34.551Z,0.43
2022-09-28T22:56:04.850Z,0.40
2022-09-28T22:58:35.754Z,0.60
2022-09-28T23:01:17.264Z,0.50
2022-09-28T23:03:44.773Z,0.40
2022-09-28T23:06:13.497Z,0.30
2022-09-28T23:08:40.110Z,0.30
2022-09-28T23:11:07.016Z,0.40
2022-09-28T23:13:35.049Z,0.47
2022-09-28T23:16:04.185Z,0.40
2022-09-28T23:18:33.434Z,0.32
2022-09-28T23:21:02.161Z,0.40
2022-09-28T23:23:28.790Z,0.30
2022-09-28T23:25:55.711Z,0.45
2022-09-28T23:28:24.184Z,0.32
2022-09-28T23:30:51.263Z,0.40
2022-09-28T23:33:20.002Z,0.40
2022-09-28T23:35:49.693Z,0.45
2022-09-28T23:38:18.210Z,0.30
2022-09-28T23:40:46.374Z,0.40
2022-09-28T23:43:13.555Z,0.40
2022-09-28T23:45:42.623Z,0.30
2022-09-28T23:48:09.239Z,0.32
2022-09-28T23:50:35.943Z,0.30
2022-09-28T23:53:02.487Z,0.38
2022-09-28T23:55:29.285Z,0.50
2022-09-28T23:57:56.691Z,0.50
